sensor_id;sensor_type;location;lat;lon;timestamp;pressure;altitude;pressure_sealevel;temperature;humidity
68199;BME280;55021;51.554;17.044;2023-06-10T00:11:32;100415.38;;;16.01;75.87
68199;BME280;55021;51.554;17.044;2023-06-10T00:26:34;100420.06;;;16.69;74.12
68199;BME280;55021;51.554;17.044;2023-06-10T00:41:37;100439.78;;;16.02;77.41
68199;BME280;55021;51.554;17.044;2023-06-10T00:56:39;100445.66;;;16.27;76.33
68199;BME280;55021;51.554;17.044;2023-06-10T01:11:47;100431.84;;;16.07;76.96
68199;BME280;55021;51.554;17.044;2023-06-10T01:26:54;100467.00;;;16.38;76.66
68199;BME280;55021;51.554;17.044;2023-06-10T01:41:58;100426.63;;;16.12;74.13
68199;BME280;55021;51.554;17.044;2023-06-10T01:57:01;100478.78;;;16.39;74.07
68199;BME280;55021;51.554;17.044;2023-06-10T02:12:04;100469.31;;;16.35;75.18
68199;BME280;55021;51.554;17.044;2023-06-10T02:27:07;100457.41;;;16.21;77.43
68199;BME280;55021;51.554;17.044;2023-06-10T02:42:14;100488.66;;;16.61;76.26
68199;BME280;55021;51.554;17.044;2023-06-10T02:57:30;100488.78;;;17.21;75.05
68199;BME280;55021;51.554;17.044;2023-06-10T03:12:33;100498.03;;;17.68;73.40
68199;BME280;55021;51.554;17.044;2023-06-10T03:27:35;100502.09;;;18.11;71.72
68199;BME280;55021;51.554;17.044;2023-06-10T03:42:38;100510.97;;;18.33;73.51
68199;BME280;55021;51.554;17.044;2023-06-10T03:57:42;100486.91;;;17.96;76.24
68199;BME280;55021;51.554;17.044;2023-06-10T04:12:45;100472.72;;;17.66;76.88
68199;BME280;55021;51.554;17.044;2023-06-10T04:27:47;100520.03;;;18.73;74.78
68199;BME280;55021;51.554;17.044;2023-06-10T04:42:50;100453.53;;;18.25;76.78
68199;BME280;55021;51.554;17.044;2023-06-10T04:57:52;100535.22;;;19.65;74.16
68199;BME280;55021;51.554;17.044;2023-06-10T05:12:55;100489.50;;;20.27;69.81
68199;BME280;55021;51.554;17.044;2023-06-10T05:27:57;100564.97;;;21.18;68.10
68199;BME280;55021;51.554;17.044;2023-06-10T05:43:09;100566.72;;;20.39;69.58
68199;BME280;55021;51.554;17.044;2023-06-10T05:58:12;100582.47;;;21.60;66.09
68199;BME280;55021;51.554;17.044;2023-06-10T06:13:18;100591.31;;;22.46;62.96
68199;BME280;55021;51.554;17.044;2023-06-10T06:28:21;100598.78;;;22.69;61.72
68199;BME280;55021;51.554;17.044;2023-06-10T06:43:23;100594.16;;;22.40;61.79
68199;BME280;55021;51.554;17.044;2023-06-10T06:58:26;100637.41;;;22.99;60.38
68199;BME280;55021;51.554;17.044;2023-06-10T07:13:29;100652.59;;;22.55;60.42
68199;BME280;55021;51.554;17.044;2023-06-10T07:28:31;100642.75;;;22.59;59.72
68199;BME280;55021;51.554;17.044;2023-06-10T07:43:34;100649.34;;;23.57;59.15
68199;BME280;55021;51.554;17.044;2023-06-10T07:58:39;100657.03;;;24.18;54.63
68199;BME280;55021;51.554;17.044;2023-06-10T08:13:42;100658.75;;;25.09;51.86
68199;BME280;55021;51.554;17.044;2023-06-10T08:28:45;100596.25;;;25.23;48.99
68199;BME280;55021;51.554;17.044;2023-06-10T08:43:54;100594.09;;;25.85;46.89
68199;BME280;55021;51.554;17.044;2023-06-10T08:59:02;100585.97;;;25.62;45.69
68199;BME280;55021;51.554;17.044;2023-06-10T09:14:09;100637.13;;;25.66;42.59
68199;BME280;55021;51.554;17.044;2023-06-10T09:29:12;100651.00;;;26.04;39.21
68199;BME280;55021;51.554;17.044;2023-06-10T09:44:21;100627.72;;;26.91;38.61
68199;BME280;55021;51.554;17.044;2023-06-10T09:59:32;100645.25;;;26.59;37.54
68199;BME280;55021;51.554;17.044;2023-06-10T10:14:39;100578.47;;;26.91;33.76
68199;BME280;55021;51.554;17.044;2023-06-10T10:29:45;100556.31;;;27.53;29.91
68199;BME280;55021;51.554;17.044;2023-06-10T10:44:55;100568.78;;;26.99;31.54
68199;BME280;55021;51.554;17.044;2023-06-10T11:00:01;100554.16;;;26.77;30.41
68199;BME280;55021;51.554;17.044;2023-06-10T11:15:04;100584.31;;;27.73;27.77
68199;BME280;55021;51.554;17.044;2023-06-10T11:30:22;100592.06;;;28.38;28.78
68199;BME280;55021;51.554;17.044;2023-06-10T11:45:29;100578.72;;;27.63;29.30
68199;BME280;55021;51.554;17.044;2023-06-10T12:00:31;100551.19;;;27.25;29.41
68199;BME280;55021;51.554;17.044;2023-06-10T12:15:33;100586.53;;;27.71;28.99
68199;BME280;55021;51.554;17.044;2023-06-10T12:30:36;100550.16;;;28.13;26.97
68199;BME280;55021;51.554;17.044;2023-06-10T12:45:40;100536.97;;;27.84;26.02
68199;BME280;55021;51.554;17.044;2023-06-10T13:00:44;100523.81;;;27.69;27.21
68199;BME280;55021;51.554;17.044;2023-06-10T13:15:47;100575.44;;;27.87;28.84
68199;BME280;55021;51.554;17.044;2023-06-10T13:30:50;100510.06;;;27.47;26.84
68199;BME280;55021;51.554;17.044;2023-06-10T13:46:06;100560.63;;;27.76;27.10
68199;BME280;55021;51.554;17.044;2023-06-10T14:01:18;100476.56;;;26.80;27.40
68199;BME280;55021;51.554;17.044;2023-06-10T14:16:28;100528.53;;;26.75;25.32
68199;BME280;55021;51.554;17.044;2023-06-10T14:31:39;100512.28;;;27.45;25.83
68199;BME280;55021;51.554;17.044;2023-06-10T14:47:02;100539.94;;;25.23;28.80
68199;BME280;55021;51.554;17.044;2023-06-10T15:02:23;100549.00;;;26.58;26.83
68199;BME280;55021;51.554;17.044;2023-06-10T15:17:37;100460.34;;;26.03;27.61
68199;BME280;55021;51.554;17.044;2023-06-10T15:32:44;100464.41;;;25.91;24.66
68199;BME280;55021;51.554;17.044;2023-06-10T15:47:49;100498.81;;;26.17;25.34
68199;BME280;55021;51.554;17.044;2023-06-10T16:02:52;100578.75;;;25.61;26.73
68199;BME280;55021;51.554;17.044;2023-06-10T16:18:18;100585.91;;;25.57;27.06
68199;BME280;55021;51.554;17.044;2023-06-10T16:33:42;100476.38;;;24.66;25.85
68199;BME280;55021;51.554;17.044;2023-06-10T16:49:11;100539.47;;;24.14;27.49
68199;BME280;55021;51.554;17.044;2023-06-10T17:04:29;100555.59;;;24.17;27.47
68199;BME280;55021;51.554;17.044;2023-06-10T17:19:35;100560.94;;;23.39;26.66
68199;BME280;55021;51.554;17.044;2023-06-10T17:34:37;100639.00;;;23.41;25.79
68199;BME280;55021;51.554;17.044;2023-06-10T17:49:43;100592.81;;;23.42;25.25
68199;BME280;55021;51.554;17.044;2023-06-10T18:04:54;100638.97;;;22.95;25.35
68199;BME280;55021;51.554;17.044;2023-06-10T18:19:58;100668.72;;;22.70;26.63
68199;BME280;55021;51.554;17.044;2023-06-10T18:35:02;100686.19;;;22.40;27.86
68199;BME280;55021;51.554;17.044;2023-06-10T18:50:06;100700.63;;;20.71;29.65
68199;BME280;55021;51.554;17.044;2023-06-10T19:05:09;100716.53;;;19.74;32.90
68199;BME280;55021;51.554;17.044;2023-06-10T19:20:12;100734.97;;;19.34;33.06
68199;BME280;55021;51.554;17.044;2023-06-10T19:35:15;100701.75;;;18.76;34.91
68199;BME280;55021;51.554;17.044;2023-06-10T19:50:18;100760.31;;;19.75;33.16
68199;BME280;55021;51.554;17.044;2023-06-10T20:05:21;100775.44;;;18.60;35.86
68199;BME280;55021;51.554;17.044;2023-06-10T20:20:24;100678.84;;;18.36;36.48
68199;BME280;55021;51.554;17.044;2023-06-10T20:35:27;100724.47;;;17.56;38.82
68199;BME280;55021;51.554;17.044;2023-06-10T20:50:30;100800.50;;;17.19;41.83
68199;BME280;55021;51.554;17.044;2023-06-10T21:05:35;100721.53;;;16.24;44.74
68199;BME280;55021;51.554;17.044;2023-06-10T21:20:37;100701.22;;;15.97;46.51
68199;BME280;55021;51.554;17.044;2023-06-10T21:35:41;100703.34;;;16.94;44.81
68199;BME280;55021;51.554;17.044;2023-06-10T21:50:46;100728.88;;;15.58;48.74
68199;BME280;55021;51.554;17.044;2023-06-10T22:05:53;100787.88;;;16.11;49.48
68199;BME280;55021;51.554;17.044;2023-06-10T22:20:56;100739.59;;;16.39;48.42
68199;BME280;55021;51.554;17.044;2023-06-10T22:36:05;100730.31;;;16.55;47.64
68199;BME280;55021;51.554;17.044;2023-06-10T22:51:13;100715.72;;;16.12;48.91
68199;BME280;55021;51.554;17.044;2023-06-10T23:22:21;100736.00;;;15.07;52.80
68199;BME280;55021;51.554;17.044;2023-06-10T23:53:30;100781.84;;;15.72;52.28
